Time;durP1;ratioP1;P1;durP2;ratioP2;P2;SDS_P1;SDS_P2;PMS_P1;PMS_P2;Temp;Humidity;BMP_temperature;BMP_pressure;BME280_temperature;BME280_humidity;BME280_pressure;Samples;Min_cycle;Max_cycle;Signal;HPM_P1;HPM_P2
2023/05/03 00:01:40;;;;;;;8.55;3.80;;;;;;;9.61;53.46;149711.78;5078508;28;20323;-63
2023/05/03 00:04:06;;;;;;;5.80;3.17;;;;;;;9.61;51.60;149710.50;5093688;28;20028;-63
2023/05/03 00:06:31;;;;;;;8.35;3.70;;;;;;;9.66;51.37;149723.28;5086925;28;20084;-64
2023/05/03 00:08:57;;;;;;;4.95;3.17;;;;;;;9.58;53.65;149704.09;5102928;28;20247;-65
2023/05/03 00:11:22;;;;;;;6.18;3.50;;;;;;;9.52;51.25;149688.72;5102904;28;20028;-64
2023/05/03 00:13:48;;;;;;;5.00;3.03;;;;;;;9.50;50.81;149684.88;5088127;28;20036;-65
2023/05/03 00:16:13;;;;;;;7.97;3.95;;;;;;;9.50;51.72;149684.88;5082518;28;20060;-65
2023/05/03 00:18:39;;;;;;;6.00;3.45;;;;;;;9.53;51.09;149691.25;5087842;28;20024;-65
2023/05/03 00:21:04;;;;;;;7.03;3.30;;;;;;;9.54;51.94;149693.84;5102649;28;20024;-65
2023/05/03 00:23:30;;;;;;;4.85;3.00;;;;;;;9.51;51.65;149686.16;5102574;28;20044;-64
2023/05/03 00:25:58;;;;;;;9.52;3.90;;;;;;;9.53;51.20;149690.00;5102613;28;20050;-64
2023/05/03 00:28:25;;;;;;;6.10;3.20;;;;;;;9.55;51.85;149695.09;5091662;28;20111;-65
2023/05/03 00:30:51;;;;;;;6.50;3.10;;;;;;;9.42;51.29;149663.06;5089435;28;20036;-65
2023/05/03 00:33:17;;;;;;;4.13;3.20;;;;;;;9.49;53.28;149682.31;5102845;28;20020;-66
2023/05/03 00:35:43;;;;;;;5.15;2.97;;;;;;;9.48;50.99;149678.47;5102798;28;20035;-64
2023/05/03 00:38:09;;;;;;;5.63;2.88;;;;;;;9.36;51.37;149647.72;5101906;28;20028;-65
2023/05/03 00:40:34;;;;;;;8.90;3.28;;;;;;;9.05;50.99;149572.13;5089924;28;20083;-65
2023/05/03 00:43:00;;;;;;;5.28;3.40;;;;;;;9.32;51.75;149640.03;5101066;28;20031;-65
2023/05/03 00:45:26;;;;;;;6.72;3.35;;;;;;;9.43;51.57;149665.63;5102370;28;20039;-64
2023/05/03 00:47:51;;;;;;;7.00;3.72;;;;;;;9.30;51.64;149633.63;5102708;28;20383;-65
2023/05/03 00:50:17;;;;;;;7.97;3.42;;;;;;;9.35;51.95;149645.13;5084019;28;20490;-66
2023/05/03 00:52:43;;;;;;;6.72;2.95;;;;;;;9.36;51.58;149648.97;5096406;28;20091;-64
2023/05/03 00:55:09;;;;;;;7.22;3.83;;;;;;;9.37;51.32;149651.53;5093521;28;20035;-64
2023/05/03 00:57:35;;;;;;;7.43;3.38;;;;;;;9.19;51.87;149605.44;5086811;28;20024;-65
2023/05/03 01:00:00;;;;;;;7.40;3.50;;;;;;;9.21;51.95;149611.84;5102838;28;20241;-65
2023/05/03 01:02:29;;;;;;;5.88;3.28;;;;;;;9.29;52.08;149631.03;5082948;28;20025;-64
2023/05/03 01:04:55;;;;;;;8.52;3.58;;;;;;;9.30;53.32;149633.63;5082262;28;20096;-66
2023/05/03 01:07:45;;;;;;;9.68;3.60;;;;;;;9.33;52.75;149641.28;5075063;28;20102;-63
2023/05/03 01:10:33;;;;;;;6.20;3.25;;;;;;;9.21;52.29;149611.84;5093004;28;20029;-64
2023/05/03 01:13:07;;;;;;;6.85;3.53;;;;;;;9.13;52.70;149591.34;5089582;28;20036;-64
2023/05/03 01:15:36;;;;;;;5.68;3.50;;;;;;;9.21;52.02;149610.56;5101360;28;20496;-64
2023/05/03 01:18:17;;;;;;;5.22;3.25;;;;;;;9.15;53.16;149597.75;5102407;28;20035;-65
2023/05/03 01:20:48;;;;;;;5.00;3.55;;;;;;;9.19;52.65;149605.44;5064397;28;20182;-64
2023/05/03 01:23:51;;;;;;;5.30;3.55;;;;;;;9.10;52.57;149583.66;5099869;28;20058;-64
2023/05/03 01:26:21;;;;;;;8.43;3.28;;;;;;;9.22;53.41;149613.09;5083731;28;20118;-65
2023/05/03 01:28:47;;;;;;;6.25;3.30;;;;;;;9.24;54.55;149619.50;5096194;28;20028;-64
2023/05/03 01:31:34;;;;;;;3.42;2.90;;;;;;;9.15;53.81;149597.75;5094473;28;20037;-65
2023/05/03 01:34:11;;;;;;;4.90;2.75;;;;;;;9.02;53.49;149564.47;5102143;28;20027;-63
2023/05/03 01:36:41;;;;;;;7.50;2.90;;;;;;;9.09;52.79;149581.06;5101892;28;20137;-63
2023/05/03 01:39:15;;;;;;;7.07;2.97;;;;;;;9.08;53.65;149579.81;5101931;28;20091;-63
2023/05/03 01:41:42;;;;;;;4.60;2.50;;;;;;;9.12;52.89;149588.75;5093103;28;20255;-64
2023/05/03 01:44:09;;;;;;;6.00;2.97;;;;;;;9.05;53.23;149570.81;5081769;28;20031;-65
2023/05/03 01:46:44;;;;;;;5.88;2.85;;;;;;;8.77;53.04;149502.94;5087633;28;20066;-64
2023/05/03 01:49:10;;;;;;;5.18;2.78;;;;;;;8.91;54.03;149536.28;5082867;28;20285;-64
2023/05/03 01:51:36;;;;;;;5.22;3.13;;;;;;;9.01;53.58;149561.88;5089280;28;20032;-65
2023/05/03 01:54:01;;;;;;;7.97;3.20;;;;;;;9.02;54.18;149563.16;5087643;28;20024;-64
2023/05/03 01:56:27;;;;;;;12.98;2.78;;;;;;;9.13;54.29;149591.34;5078731;28;20087;-65
2023/05/03 01:58:52;;;;;;;5.03;2.78;;;;;;;9.01;53.31;149561.88;5105295;28;20075;-64
2023/05/03 02:01:18;;;;;;;5.07;2.90;;;;;;;9.12;53.09;149588.75;5095524;28;20024;-63
2023/05/03 02:03:43;;;;;;;4.80;2.97;;;;;;;9.11;53.83;149587.50;5089900;28;20095;-65
2023/05/03 02:06:09;;;;;;;4.47;2.75;;;;;;;9.24;53.02;149619.50;5105573;28;20309;-64
2023/05/03 02:08:35;;;;;;;6.65;2.55;;;;;;;9.21;53.56;149610.56;5105335;28;20034;-64
2023/05/03 02:11:00;;;;;;;5.85;3.03;;;;;;;9.22;52.83;149613.09;5089606;28;20212;-64
2023/05/03 02:13:26;;;;;;;4.78;2.90;;;;;;;9.29;52.43;149632.34;5095673;28;20058;-65
2023/05/03 02:15:51;;;;;;;4.28;2.63;;;;;;;9.29;53.48;149631.03;5104366;28;20032;-66
2023/05/03 02:18:18;;;;;;;4.95;2.40;;;;;;;9.18;53.16;149602.84;5103852;28;20038;-66
2023/05/03 02:20:45;;;;;;;4.40;2.83;;;;;;;9.21;52.95;149610.56;5087011;28;20054;-66
2023/05/03 02:23:10;;;;;;;5.03;2.47;;;;;;;9.25;52.94;149622.09;5104989;28;20339;-65
2023/05/03 02:25:36;;;;;;;6.38;3.00;;;;;;;9.27;52.28;149627.19;5104959;28;20090;-66
2023/05/03 02:28:02;;;;;;;4.78;2.55;;;;;;;9.22;52.83;149613.09;5097515;28;20025;-67
2023/05/03 02:30:27;;;;;;;7.20;2.63;;;;;;;9.30;52.29;149633.63;5084722;28;20024;-66
2023/05/03 02:32:53;;;;;;;9.85;2.90;;;;;;;9.26;53.10;149623.34;5100135;28;20024;-64
2023/05/03 02:35:19;;;;;;;5.72;2.97;;;;;;;9.37;52.85;149650.28;5104551;28;20300;-64
2023/05/03 02:37:44;;;;;;;5.88;2.40;;;;;;;9.46;52.97;149673.31;5091198;28;20032;-65
2023/05/03 02:40:10;;;;;;;6.43;2.30;;;;;;;9.55;52.75;149696.41;5084051;28;20024;-66
2023/05/03 02:42:36;;;;;;;6.68;2.42;;;;;;;9.61;52.57;149710.50;5098790;28;20031;-65
2023/05/03 02:45:02;;;;;;;6.15;2.67;;;;;;;9.74;51.50;149743.81;5104467;28;20360;-65
2023/05/03 02:47:29;;;;;;;4.22;2.38;;;;;;;9.85;51.38;149772.00;5104736;28;20058;-64
2023/05/03 02:49:55;;;;;;;5.78;2.55;;;;;;;9.91;51.66;149784.84;5089727;28;20275;-65
2023/05/03 02:52:20;;;;;;;8.10;2.90;;;;;;;9.82;51.30;149764.31;5093937;28;20032;-65
2023/05/03 02:54:48;;;;;;;8.00;2.50;;;;;;;9.83;50.42;149766.91;5104311;28;20239;-64
2023/05/03 02:57:14;;;;;;;4.03;2.63;;;;;;;9.78;51.41;149754.06;5103964;28;20225;-66
2023/05/03 02:59:40;;;;;;;5.85;2.00;;;;;;;9.79;51.23;149756.63;5103891;28;20024;-65
2023/05/03 03:02:05;;;;;;;5.47;2.60;;;;;;;9.83;51.42;149766.91;5069426;28;20124;-64
2023/05/03 03:04:31;;;;;;;4.45;2.40;;;;;;;9.90;50.71;149782.28;5094853;28;20051;-65
2023/05/03 03:06:57;;;;;;;5.50;2.35;;;;;;;9.98;51.22;149804.06;5097861;28;20063;-65
2023/05/03 03:09:22;;;;;;;4.82;2.42;;;;;;;10.00;51.11;149807.88;5083701;28;20032;-66
2023/05/03 03:11:50;;;;;;;6.45;2.40;;;;;;;10.03;50.29;149815.56;5083208;28;20021;-64
2023/05/03 03:14:16;;;;;;;4.30;2.53;;;;;;;10.11;50.53;149834.84;5100759;28;20039;-65
2023/05/03 03:16:41;;;;;;;6.25;2.60;;;;;;;10.09;50.79;149831.00;5091489;28;20092;-64
2023/05/03 03:19:07;;;;;;;6.55;2.17;;;;;;;10.07;50.43;149825.84;5090913;28;20189;-65
2023/05/03 03:21:34;;;;;;;8.48;2.30;;;;;;;10.11;49.45;149836.09;5103707;28;20032;-66
2023/05/03 03:24:00;;;;;;;6.63;2.20;;;;;;;10.16;50.11;149847.63;5103777;28;20028;-63
2023/05/03 03:26:26;;;;;;;3.92;2.50;;;;;;;10.14;49.73;149842.50;5103748;28;20024;-64
2023/05/03 03:28:51;;;;;;;4.90;2.10;;;;;;;10.16;50.05;149848.94;5089849;28;20033;-64
2023/05/03 03:31:17;;;;;;;6.82;2.22;;;;;;;10.18;49.84;149852.78;5092119;28;20028;-65
2023/05/03 03:33:42;;;;;;;6.07;2.05;;;;;;;10.03;49.28;149815.56;5099268;28;20092;-65
2023/05/03 03:36:09;;;;;;;5.13;2.58;;;;;;;10.11;49.36;149836.09;5082982;28;20095;-64
2023/05/03 03:38:34;;;;;;;7.10;2.20;;;;;;;10.08;49.22;149828.41;5102659;28;20050;-63
2023/05/03 03:41:00;;;;;;;5.28;2.22;;;;;;;10.18;49.69;149852.78;5090172;28;20028;-66
2023/05/03 03:43:26;;;;;;;3.92;2.50;;;;;;;10.18;50.04;149852.78;5103433;28;20066;-65
2023/05/03 03:45:52;;;;;;;6.07;3.10;;;;;;;10.26;49.53;149873.31;5097931;28;20123;-66
2023/05/03 03:48:18;;;;;;;6.45;2.63;;;;;;;10.28;49.60;149877.16;5082748;28;20044;-64
2023/05/03 03:50:44;;;;;;;4.20;2.17;;;;;;;10.33;50.16;149889.94;5082783;28;20028;-66
2023/05/03 03:53:10;;;;;;;5.63;2.30;;;;;;;10.28;49.35;149877.16;5082387;28;20035;-64
2023/05/03 03:55:36;;;;;;;5.40;2.40;;;;;;;10.28;49.78;149877.16;5093753;28;20321;-64
2023/05/03 03:58:01;;;;;;;6.72;2.75;;;;;;;10.32;49.60;149888.66;5096321;28;20032;-63
2023/05/03 04:00:27;;;;;;;5.20;2.35;;;;;;;10.35;49.42;149896.41;5082339;28;20028;-63
2023/05/03 04:02:53;;;;;;;4.82;2.10;;;;;;;10.35;49.72;149895.13;5082006;28;20213;-66
2023/05/03 04:05:18;;;;;;;6.30;2.70;;;;;;;10.42;49.69;149911.78;5080779;28;20040;-65
2023/05/03 04:07:44;;;;;;;5.05;2.30;;;;;;;10.36;49.28;149897.66;5089551;28;20036;-64
2023/05/03 04:10:09;;;;;;;9.88;2.55;;;;;;;10.33;49.59;149891.25;5089729;28;20023;-64
2023/05/03 04:12:36;;;;;;;5.88;2.17;;;;;;;10.43;50.20;149914.34;5100023;28;20182;-64
2023/05/03 04:15:03;;;;;;;7.53;2.55;;;;;;;10.45;51.22;149920.78;5082509;28;20088;-64
2023/05/03 04:17:30;;;;;;;5.38;2.50;;;;;;;10.48;52.45;149928.47;5101633;28;20027;-67
2023/05/03 04:19:56;;;;;;;3.90;2.50;;;;;;;10.45;52.79;149920.78;5088845;28;20035;-64
2023/05/03 04:22:22;;;;;;;3.95;2.35;;;;;;;10.33;54.38;149889.94;5091546;28;20028;-65
2023/05/03 04:24:47;;;;;;;4.40;2.20;;;;;;;10.33;57.24;149889.94;5098512;28;20073;-65
2023/05/03 04:27:13;;;;;;;7.30;2.67;;;;;;;10.27;56.02;149874.56;5082246;28;20193;-66
2023/05/03 04:29:39;;;;;;;7.22;2.28;;;;;;;10.37;56.70;149900.25;5102084;28;20032;-65
2023/05/03 04:32:06;;;;;;;5.60;2.40;;;;;;;10.34;55.73;149892.56;5101918;28;20040;-65
2023/05/03 04:34:32;;;;;;;10.23;2.40;;;;;;;10.40;56.35;149906.66;5102521;28;20236;-64
2023/05/03 04:36:59;;;;;;;5.20;2.38;;;;;;;10.37;55.65;149900.25;5096970;28;20091;-65
2023/05/03 04:39:25;;;;;;;5.63;2.33;;;;;;;10.34;57.30;149892.56;5083219;28;20327;-67
2023/05/03 04:41:50;;;;;;;6.15;2.60;;;;;;;10.38;58.76;149901.56;5102047;28;20091;-66
2023/05/03 04:44:16;;;;;;;5.30;2.45;;;;;;;10.33;59.36;149889.94;5102388;28;20351;-66
2023/05/03 04:46:42;;;;;;;4.97;2.50;;;;;;;10.36;59.85;149897.66;5093528;28;20032;-67
2023/05/03 04:49:07;;;;;;;6.07;2.45;;;;;;;10.27;60.04;149875.84;5095527;28;20347;-66
2023/05/03 04:51:33;;;;;;;5.00;2.70;;;;;;;10.26;59.63;149873.31;5090058;28;20339;-67
2023/05/03 04:53:59;;;;;;;6.20;2.80;;;;;;;10.32;60.49;149888.66;5082168;28;20024;-66
2023/05/03 04:56:25;;;;;;;7.80;2.92;;;;;;;10.27;62.15;149874.56;5082010;28;20035;-65
2023/05/03 04:58:54;;;;;;;7.10;2.88;;;;;;;10.33;61.13;149889.94;5066852;28;20099;-67
2023/05/03 05:01:25;;;;;;;9.80;2.95;;;;;;;10.23;61.48;149865.56;5102008;28;20022;-66
2023/05/03 05:03:52;;;;;;;5.20;2.80;;;;;;;10.25;61.31;149869.47;5101717;28;20028;-66
2023/05/03 05:06:17;;;;;;;4.13;3.05;;;;;;;10.30;62.52;149883.56;5102184;28;20044;-66
2023/05/03 05:08:43;;;;;;;3.88;2.75;;;;;;;10.30;61.31;149883.56;5082238;28;20035;-66
2023/05/03 05:11:09;;;;;;;5.15;2.65;;;;;;;10.28;60.88;149878.41;5096549;28;20035;-67
2023/05/03 05:13:35;;;;;;;5.40;3.13;;;;;;;10.18;61.53;149852.78;5101432;28;20035;-67
2023/05/03 05:16:01;;;;;;;4.72;2.97;;;;;;;10.19;62.21;149855.34;5101672;28;20023;-69
2023/05/03 05:18:26;;;;;;;5.72;2.75;;;;;;;10.26;62.77;149872.00;5100755;28;20160;-69
2023/05/03 05:20:52;;;;;;;9.70;3.17;;;;;;;10.38;61.27;149901.56;5085795;28;20244;-68
2023/05/03 05:23:18;;;;;;;4.80;2.40;;;;;;;10.30;61.20;149882.25;5098057;28;20123;-70
2023/05/03 05:25:45;;;;;;;6.78;3.08;;;;;;;10.41;61.53;149910.50;5090279;28;20020;-69
2023/05/03 05:28:10;;;;;;;3.97;2.63;;;;;;;10.48;61.79;149928.47;5107219;28;20066;-69
2023/05/03 05:30:36;;;;;;;4.63;3.03;;;;;;;10.46;59.70;149923.34;5085819;28;20028;-69
2023/05/03 05:33:02;;;;;;;6.75;3.33;;;;;;;10.63;61.10;149965.69;5102351;28;20031;-69
2023/05/03 05:35:28;;;;;;;5.05;2.80;;;;;;;10.67;60.11;149974.63;5105542;28;20035;-69
2023/05/03 05:37:53;;;;;;;3.42;2.40;;;;;;;10.87;59.24;150025.97;5093015;28;20231;-69
2023/05/03 05:40:20;;;;;;;7.97;2.72;;;;;;;10.95;61.06;150045.19;5068362;28;20095;-69
2023/05/03 05:42:47;;;;;;;7.78;3.00;;;;;;;11.04;61.23;150068.28;5067476;28;20364;-70
2023/05/03 05:45:13;;;;;;;3.90;2.55;;;;;;;11.11;61.13;150084.94;5074222;28;20035;-69
2023/05/03 05:47:38;;;;;;;4.03;2.72;;;;;;;11.23;59.71;150114.47;5085961;28;20021;-69
2023/05/03 05:50:05;;;;;;;6.15;2.72;;;;;;;11.35;60.32;150145.25;5085013;28;20320;-69
2023/05/03 05:52:31;;;;;;;5.47;2.65;;;;;;;11.55;59.82;150194.03;5076810;28;20232;-69
2023/05/03 05:54:56;;;;;;;5.35;3.20;;;;;;;11.54;58.76;150191.44;5100685;28;20066;-68
2023/05/03 05:57:22;;;;;;;5.97;3.45;;;;;;;11.64;59.13;150217.09;5085386;28;20028;-70
2023/05/03 05:59:49;;;;;;;4.18;2.65;;;;;;;11.77;59.35;150249.19;5066958;28;20028;-68
2023/05/03 06:02:15;;;;;;;4.25;2.92;;;;;;;11.96;58.03;150295.50;5100510;28;20031;-70
2023/05/03 06:04:41;;;;;;;7.00;3.65;;;;;;;11.82;56.80;150260.78;5076098;28;20078;-70
2023/05/03 06:07:07;;;;;;;6.13;3.00;;;;;;;11.70;57.95;150231.22;5090894;28;20035;-69
2023/05/03 06:09:32;;;;;;;9.88;3.40;;;;;;;11.71;56.97;150233.81;5103966;28;20048;-69
2023/05/03 06:11:58;;;;;;;9.45;3.45;;;;;;;11.80;57.62;150255.63;5084849;28;20085;-70
2023/05/03 06:14:23;;;;;;;9.10;4.22;;;;;;;11.73;57.84;150240.22;5084739;28;20044;-70
2023/05/03 06:16:49;;;;;;;5.65;3.70;;;;;;;11.70;57.42;150231.22;5098290;28;20032;-69
2023/05/03 06:19:15;;;;;;;4.78;3.00;;;;;;;11.81;56.61;150259.47;5086919;28;20502;-69
2023/05/03 06:21:40;;;;;;;5.68;3.10;;;;;;;11.79;57.69;150254.34;5104968;28;20065;-69
2023/05/03 06:24:06;;;;;;;9.57;4.22;;;;;;;11.74;56.87;150241.50;5104663;28;20024;-70
2023/05/03 06:26:32;;;;;;;8.57;3.65;;;;;;;11.90;57.84;150281.34;5086536;28;20043;-69
2023/05/03 06:28:59;;;;;;;7.57;3.28;;;;;;;12.05;57.27;150319.84;5091920;28;20120;-69
2023/05/03 06:31:25;;;;;;;5.60;3.50;;;;;;;12.09;56.09;150328.88;5092634;28;20028;-70
2023/05/03 06:33:50;;;;;;;7.70;3.63;;;;;;;12.07;57.36;150323.69;5101131;28;20194;-70
2023/05/03 06:36:16;;;;;;;7.78;3.40;;;;;;;12.21;58.00;150358.38;5084063;28;20032;-69
2023/05/03 06:38:42;;;;;;;7.55;3.47;;;;;;;12.25;58.34;150368.66;5084273;28;20100;-70
2023/05/03 06:41:08;;;;;;;8.23;4.28;;;;;;;12.13;57.38;150337.81;5098455;28;20051;-70
2023/05/03 06:43:34;;;;;;;7.25;3.70;;;;;;;12.30;57.81;150380.19;5104339;28;20035;-70
2023/05/03 06:45:59;;;;;;;6.38;4.07;;;;;;;12.37;56.03;150398.19;5099662;28;20232;-69
2023/05/03 06:48:26;;;;;;;7.93;3.70;;;;;;;12.42;55.65;150412.31;5084034;28;20194;-69
2023/05/03 06:50:51;;;;;;;5.05;3.35;;;;;;;12.45;54.87;150417.47;5084004;28;20028;-70
2023/05/03 06:53:17;;;;;;;6.93;3.60;;;;;;;12.65;55.84;150468.81;5091208;28;20029;-70
2023/05/03 06:55:44;;;;;;;8.38;3.80;;;;;;;12.72;53.98;150485.53;5069122;28;20213;-70
2023/05/03 06:58:10;;;;;;;6.22;3.60;;;;;;;12.84;54.35;150516.38;5090097;28;20035;-70
2023/05/03 07:00:38;;;;;;;9.77;4.30;;;;;;;12.90;54.52;150530.50;5103004;28;20229;-70
2023/05/03 07:03:05;;;;;;;7.35;3.95;;;;;;;13.06;55.31;150571.59;5083939;28;20366;-70
2023/05/03 07:05:30;;;;;;;9.90;3.80;;;;;;;13.06;57.26;150570.34;5100978;28;20170;-70
2023/05/03 07:07:56;;;;;;;11.02;4.40;;;;;;;13.02;53.91;150560.03;5103953;28;20059;-69
2023/05/03 07:10:21;;;;;;;6.65;3.60;;;;;;;13.19;54.17;150603.72;5095388;28;20032;-69
2023/05/03 07:12:47;;;;;;;17.10;4.22;;;;;;;13.26;54.19;150621.72;5088953;28;20202;-70
2023/05/03 07:15:13;;;;;;;11.15;4.10;;;;;;;13.45;54.57;150668.03;5091163;28;20028;-70
2023/05/03 07:17:39;;;;;;;7.53;4.00;;;;;;;13.35;54.41;150643.59;5092875;28;20028;-71
2023/05/03 07:20:06;;;;;;;9.45;4.07;;;;;;;13.47;54.23;150673.19;5093794;28;20297;-71
2023/05/03 07:22:31;;;;;;;8.27;3.58;;;;;;;13.43;54.09;150662.91;5058873;28;20074;-71
2023/05/03 07:24:58;;;;;;;7.88;3.78;;;;;;;13.43;54.27;150662.91;5066903;28;20309;-70
2023/05/03 07:27:27;;;;;;;7.72;3.45;;;;;;;13.60;54.89;150706.59;5083342;28;20082;-70
2023/05/03 07:29:52;;;;;;;7.15;3.88;;;;;;;13.78;53.21;150750.28;5085246;28;20039;-71
2023/05/03 07:32:18;;;;;;;8.98;4.28;;;;;;;13.83;53.39;150761.88;5098983;28;20066;-71
2023/05/03 07:34:44;;;;;;;9.88;4.55;;;;;;;13.71;53.05;150732.28;5092886;28;20138;-71
2023/05/03 07:37:09;;;;;;;9.40;4.00;;;;;;;13.88;52.37;150776.03;5093953;28;20221;-70
2023/05/03 07:39:35;;;;;;;8.10;3.88;;;;;;;13.93;53.37;150788.84;5082741;28;20028;-71
2023/05/03 07:42:01;;;;;;;10.02;4.60;;;;;;;13.98;52.08;150801.72;5093175;28;20289;-70
2023/05/03 07:44:26;;;;;;;9.48;4.53;;;;;;;14.05;52.79;150817.16;5103588;28;20028;-70
2023/05/03 07:46:52;;;;;;;6.95;3.50;;;;;;;14.20;53.39;150854.47;5102403;28;20321;-71
2023/05/03 07:49:18;;;;;;;5.63;3.72;;;;;;;14.38;54.08;150900.75;5103068;28;20299;-70
2023/05/03 07:51:43;;;;;;;8.82;4.68;;;;;;;14.40;52.02;150905.88;5082744;28;20217;-70
2023/05/03 07:54:09;;;;;;;13.40;4.45;;;;;;;14.39;51.29;150902.03;5082799;28;20056;-70
2023/05/03 07:56:34;;;;;;;8.90;4.53;;;;;;;14.42;51.25;150909.72;5064452;28;20325;-70
2023/05/03 07:59:00;;;;;;;7.90;4.35;;;;;;;14.48;52.41;150926.47;5094990;28;20030;-69
2023/05/03 08:01:26;;;;;;;12.43;4.72;;;;;;;14.67;52.74;150972.81;5095063;28;20044;-69
2023/05/03 08:03:52;;;;;;;12.85;4.30;;;;;;;14.60;52.05;150954.78;5085439;28;20101;-70
2023/05/03 08:06:18;;;;;;;11.55;4.00;;;;;;;14.59;51.94;150952.19;5085067;28;20044;-68
2023/05/03 08:08:44;;;;;;;7.15;4.30;;;;;;;14.57;51.31;150948.34;5083963;28;20039;-69
2023/05/03 08:11:10;;;;;;;6.80;4.10;;;;;;;14.59;51.26;150953.50;5096245;28;20023;-69
2023/05/03 08:13:36;;;;;;;8.07;3.95;;;;;;;14.65;52.30;150968.97;5093795;28;20321;-69
2023/05/03 08:16:02;;;;;;;5.43;3.80;;;;;;;14.71;52.57;150981.81;5089009;28;20050;-69
2023/05/03 08:18:28;;;;;;;14.75;5.05;;;;;;;14.61;51.57;150957.34;5102834;28;20054;-70
2023/05/03 08:20:54;;;;;;;8.57;4.35;;;;;;;14.56;52.55;150945.75;5102695;28;20028;-70
2023/05/03 08:23:20;;;;;;;10.45;4.53;;;;;;;14.58;51.94;150950.91;5101638;28;20036;-68
2023/05/03 08:25:47;;;;;;;7.47;4.07;;;;;;;14.60;52.12;150956.03;5092006;28;20036;-69
2023/05/03 08:28:12;;;;;;;9.75;4.53;;;;;;;14.58;53.01;150950.91;5087575;28;20227;-68
2023/05/03 08:30:39;;;;;;;7.25;4.20;;;;;;;14.54;52.90;150940.63;5101816;28;20055;-70
2023/05/03 08:33:04;;;;;;;8.63;3.90;;;;;;;14.58;53.01;150950.91;5099015;28;20028;-69
2023/05/03 08:35:30;;;;;;;8.27;3.92;;;;;;;14.47;51.93;150923.88;5102150;28;20086;-69
2023/05/03 08:37:56;;;;;;;11.15;4.07;;;;;;;14.51;52.59;150932.91;5101540;28;20178;-69
2023/05/03 08:40:22;;;;;;;11.60;4.50;;;;;;;14.48;52.88;150926.47;5096602;28;20036;-69
2023/05/03 08:42:51;;;;;;;9.60;4.00;;;;;;;14.49;54.58;150927.75;5102281;28;20016;-68
2023/05/03 08:45:18;;;;;;;8.40;4.72;;;;;;;14.30;56.54;150880.16;5084149;28;20186;-69
2023/05/03 08:47:44;;;;;;;11.57;4.32;;;;;;;14.32;56.27;150886.63;5083640;28;20052;-69
2023/05/03 08:50:11;;;;;;;9.32;4.15;;;;;;;14.19;55.29;150853.16;5081757;28;20040;-68
2023/05/03 08:52:39;;;;;;;11.45;4.65;;;;;;;14.09;55.00;150827.44;5093195;28;20036;-69
2023/05/03 08:55:06;;;;;;;8.98;4.50;;;;;;;14.09;55.12;150827.44;5064192;28;20204;-69
2023/05/03 08:57:34;;;;;;;9.82;4.78;;;;;;;14.07;56.09;150823.59;5101475;28;20263;-70
2023/05/03 09:00:01;;;;;;;7.57;4.47;;;;;;;13.94;56.37;150790.19;5084720;28;20028;-69
2023/05/03 09:02:27;;;;;;;9.95;4.68;;;;;;;13.98;56.19;150800.47;5086615;28;20023;-69
2023/05/03 09:04:53;;;;;;;9.15;4.50;;;;;;;13.89;57.33;150778.56;5095633;28;20205;-68
2023/05/03 09:07:19;;;;;;;9.88;4.70;;;;;;;13.81;57.56;150759.31;5097516;28;20032;-69
2023/05/03 09:09:46;;;;;;;6.97;4.88;;;;;;;13.78;58.58;150751.59;5087226;28;20051;-68
2023/05/03 09:12:31;;;;;;;7.85;4.28;;;;;;;13.51;58.50;150682.16;5106121;28;20028;-70
2023/05/03 09:14:57;;;;;;;8.32;4.53;;;;;;;13.55;58.77;150692.44;5086506;28;20027;-69
2023/05/03 09:17:22;;;;;;;12.40;4.53;;;;;;;13.55;60.28;150693.75;5088808;28;20024;-68
2023/05/03 09:19:56;;;;;;;9.63;4.25;;;;;;;13.60;60.56;150705.31;5095555;28;20209;-69
2023/05/03 09:22:24;;;;;;;7.50;4.47;;;;;;;13.67;61.32;150723.31;5105953;28;20073;-68
2023/05/03 09:24:59;;;;;;;7.85;4.50;;;;;;;13.49;61.15;150678.31;5104401;28;20043;-68
2023/05/03 09:27:26;;;;;;;8.50;4.35;;;;;;;13.41;61.17;150659.06;5104270;28;20051;-69
2023/05/03 09:29:52;;;;;;;12.30;4.68;;;;;;;13.45;61.33;150669.34;5086759;28;20144;-69
2023/05/03 09:32:20;;;;;;;8.88;4.35;;;;;;;13.46;60.13;150670.59;5099455;28;20043;-69
2023/05/03 09:34:46;;;;;;;9.75;4.53;;;;;;;13.39;60.60;150652.63;5096577;28;20131;-68
2023/05/03 09:37:15;;;;;;;12.02;4.70;;;;;;;13.34;59.93;150641.00;5103243;28;20031;-69
2023/05/03 09:39:44;;;;;;;10.27;4.30;;;;;;;13.12;60.43;150585.72;5105170;28;20336;-69
2023/05/03 09:42:15;;;;;;;8.93;4.43;;;;;;;13.09;60.64;150579.31;5101164;28;20028;-68
2023/05/03 09:44:47;;;;;;;8.43;4.45;;;;;;;13.03;60.93;150562.63;5098772;28;20024;-70
2023/05/03 09:47:14;;;;;;;10.98;4.22;;;;;;;12.92;60.69;150536.91;5098261;28;20020;-69
2023/05/03 09:49:40;;;;;;;9.15;4.78;;;;;;;12.89;62.16;150529.19;5102440;28;20225;-69
2023/05/03 09:52:06;;;;;;;7.45;4.05;;;;;;;12.94;61.94;150540.78;5101363;28;20032;-69
2023/05/03 09:54:35;;;;;;;7.13;4.63;;;;;;;12.98;60.86;150549.75;5096786;28;20032;-69
2023/05/03 09:57:06;;;;;;;10.52;4.70;;;;;;;13.18;61.66;150601.19;5089626;28;20459;-69
2023/05/03 09:59:33;;;;;;;9.95;4.57;;;;;;;13.22;60.83;150611.41;5095818;28;20232;-68
2023/05/03 10:02:03;;;;;;;8.05;5.05;;;;;;;13.23;60.96;150614.00;5103055;28;20063;-68
2023/05/03 10:04:39;;;;;;;9.85;5.28;;;;;;;13.20;62.15;150606.31;5099497;28;20077;-69
2023/05/03 10:07:10;;;;;;;11.00;5.32;;;;;;;13.36;61.20;150644.91;5099412;28;20047;-69
2023/05/03 10:09:41;;;;;;;8.67;5.10;;;;;;;13.35;60.85;150642.34;5093428;28;20335;-70
2023/05/03 10:12:08;;;;;;;8.70;4.63;;;;;;;13.43;61.88;150662.91;5101607;28;20028;-68
2023/05/03 10:14:35;;;;;;;13.10;4.80;;;;;;;13.38;60.62;150651.34;5100221;28;20050;-69
2023/05/03 10:17:08;;;;;;;13.02;5.10;;;;;;;13.52;61.11;150686.00;5100721;28;20020;-70
2023/05/03 10:19:56;;;;;;;7.47;4.35;;;;;;;13.41;61.95;150657.72;5104612;28;20285;-69
2023/05/03 10:22:22;;;;;;;8.93;5.00;;;;;;;13.66;61.48;150719.47;5098978;28;20037;-70
2023/05/03 10:25:06;;;;;;;9.98;4.63;;;;;;;13.57;62.28;150697.63;5085587;28;20044;-69
2023/05/03 10:27:50;;;;;;;9.38;4.93;;;;;;;13.67;61.54;150722.00;5104559;28;20087;-69
2023/05/03 10:30:28;;;;;;;11.55;5.07;;;;;;;13.72;60.67;150734.88;5085127;28;20056;-69
2023/05/03 10:32:54;;;;;;;7.70;5.10;;;;;;;13.93;60.64;150787.59;5101640;28;20044;-69
2023/05/03 10:35:20;;;;;;;11.02;5.43;;;;;;;13.78;61.08;150751.59;5104084;28;20027;-70
2023/05/03 10:37:49;;;;;;;8.32;5.57;;;;;;;13.82;60.12;150760.56;5100296;28;20069;-69
2023/05/03 10:40:16;;;;;;;9.15;4.70;;;;;;;13.93;61.56;150788.84;5101052;28;20293;-68
2023/05/03 10:42:51;;;;;;;7.60;5.20;;;;;;;13.94;60.48;150791.44;5064538;28;20029;-69
2023/05/03 10:45:27;;;;;;;8.20;4.95;;;;;;;14.06;60.89;150819.72;5086026;28;20329;-69
2023/05/03 10:48:11;;;;;;;8.98;5.20;;;;;;;13.88;61.48;150774.72;5100718;28;20144;-70
2023/05/03 10:50:40;;;;;;;9.90;5.57;;;;;;;14.00;61.52;150805.59;5088460;28;20058;-70
2023/05/03 10:53:06;;;;;;;12.57;5.25;;;;;;;14.18;61.33;150849.28;5101300;28;20271;-70
2023/05/03 10:55:32;;;;;;;13.77;5.45;;;;;;;13.90;61.56;150779.88;5102011;28;20040;-69
2023/05/03 10:57:59;;;;;;;8.50;4.93;;;;;;;14.29;60.83;150877.59;5104102;28;20077;-69
2023/05/03 11:00:43;;;;;;;10.88;5.43;;;;;;;14.52;60.43;150934.19;5104030;28;20032;-68
2023/05/03 11:03:38;;;;;;;8.30;4.75;;;;;;;14.72;59.07;150985.72;5099513;28;20417;-70
2023/05/03 11:06:04;;;;;;;10.60;4.93;;;;;;;14.81;58.63;151007.56;5074192;28;20053;-68
2023/05/03 11:08:36;;;;;;;10.02;5.10;;;;;;;14.97;59.76;151048.72;5096901;28;20031;-69
2023/05/03 11:11:04;;;;;;;;;;;;;;;14.87;57.14;151021.72;5094685;28;20031;-70
2023/05/03 11:13:29;;;;;;;6.03;4.43;;;;;;;14.79;58.65;151002.41;5094512;28;19958;-69
2023/05/03 11:15:55;;;;;;;7.65;4.82;;;;;;;14.94;58.83;151041.00;5103520;28;20047;-69
2023/05/03 11:18:22;;;;;;;10.55;4.80;;;;;;;15.20;57.87;151105.34;5103739;28;20020;-69
2023/05/03 11:20:48;;;;;;;7.65;4.07;;;;;;;15.16;56.94;151095.03;5100425;28;20024;-70
2023/05/03 11:23:14;;;;;;;7.88;4.40;;;;;;;15.16;56.65;151096.34;5102562;28;20066;-67
2023/05/03 11:25:40;;;;;;;10.88;4.97;;;;;;;15.09;56.58;151078.34;5095516;28;20032;-69
2023/05/03 11:28:06;;;;;;;8.50;4.15;;;;;;;15.02;56.49;151061.59;5093840;28;20059;-71